Westford, VT (05494)

10:09 AM EDT on September 21, 2014 (GMT -0400)
King Hill | Change Station
CLOSE
Current Station
Personal Weather Station
Location: Westford, VT
Elevation: 850 ft
Nearby Weather Stations

Elev 850 ft 44.63 °N, 73.04 °W | Updated 3 minutes ago

Partly Cloudy
Partly Cloudy
67.8 °F
Feels Like 67.8 °F
N
4.0
Wind Variable Wind from SW
Gusts 22.0 mph

Today
High -- | Low -- °F
--% Chance of Precip.
Yesterday
High -- | Low -- °F
Precip. -- in
6:37 AM 6:51 PM
Waning Crescent, 7% visible
Pressure 29.79 in
Visibility 10.0 miles
Clouds Few 6000 ft
Scattered Clouds 15000 ft
Dew Point 61 °F
Humidity 79%
Rainfall 0.00 in
Snow Depth Not available.
UV 3 out of 12
Pollen .70 out of 12
Ozone Good
PM2.5 Good
Flu Activity Not available.
METAR KBTV 211354Z 18017G26KT 10SM FEW060 SCT150 21/16 A2979 RMK AO2 PK WND 18030/1333 SLP086 T02110156

More Conditions Fewer Conditions

Pressure 29.79 in
Visibility 10.0 miles
Clouds Few 6000 ft
Scattered Clouds 15000 ft
Dew Point 61 °F
Humidity 79%
Rainfall 0.00 in
Snow Depth Not available.
UV 3 out of 12
Pollen .70 out of 12
Ozone Good
PM2.5 Good
Flu Activity Not available.
METAR KBTV 211354Z 18017G26KT 10SM FEW060 SCT150 21/16 A2979 RMK AO2 PK WND 18030/1333 SLP086 T02110156

More Conditions Fewer Conditions

10-Day Weather Forecast

Almanac

Astronomy

Sep. 21, 2014 Rise Set
Actual Time 6:37 AM EDT 6:51 PM EDT
Civil Twilight 6:08 AM EDT 7:20 PM EDT
Nautical Twilight 5:34 AM EDT 7:54 PM EDT
Astronomical Twilight 4:59 AM EDT 8:29 PM EDT
Moon 4:04 AM EDT 5:29 PM EDT
Length of Visible Light 13h 11m
Length of Day
12h 13m
Tomorrow will be 3m 4s shorter.
Waning Crescent, 7% of the Moon is Illuminated
Today
Waning Crescent
Sep 24
New
Oct 1
First Quarter
Oct 8
Full
Oct 15
Last Quarter

Today's Extremes

State Highs State Lows

Community

WunderPhotos

Upload Photos

1,755,147 photos uploaded!

Nearby

Air Quality

  Air Quality AQ Index Pollutant
Yesterday Good
OZONE
Yesterday Good
PM2.5
Current Good
OZONE
Current Good
PM2.5
Sunday Good
PM2.5
Monday Good
PM2.5

Snow Depth

Station Depth Elevation
No new snow has been reported.

Earthquake Activity

City Distance Mag. Time & Date
No recent earthquake activity has been reported nearby.
Minimum magnitude displayed is 2.5.

Coastal Water Temperatures

Place Temperature
No Stations Reporting

Nearby Weather Stations